RPLC/CRK METAR and TAF weather

Enter ICAO airport designator
Station Type Date Time Source
RPLC METAR 2019/04/21 22:00 UTC NOAA

RPLC 212200Z 30002KT 9999 FEW020 BKN300 26/23 Q1010 NOSIG RMK A2983


Station Type Date Time Source
RPLC Decoded METAR 2019/04/21 22:00 UTC NOAA

Clarkfield Pampanga International Airport, Philippines (RPLC) 15-11N 120-33E
Apr 21, 2019 - 06:00 PM EDT / 2019.04.21 2200 UTC
Wind: from the WNW (300 degrees) at 2 MPH (2 KT):0
Visibility: greater than 7 mile(s):0
Sky conditions: mostly cloudy
Temperature: 78 F (26 C)
Dew Point: 73 F (23 C)
Relative Humidity: 83%
Pressure (altimeter): 29.83 in. Hg (1010 hPa)
ob: RPLC 212200Z 30002KT 9999 FEW020 BKN300 26/23 Q1010 NOSIG RMK A2983
cycle: 22

Station Type Date Time Source
RPLC TAF 2019/04/21 18:03 UTC NOAA

TAF RPLC 211700Z 2118/2224 18006KT 9999 FEW020 SCT300 TX35/2206Z TN25/2122Z
TEMPO 2118/2124 27005KT FEW020 SCT100

Example: see airport list